sensor_id;sensor_type;location;lat;lon;timestamp;P1;durP1;ratioP1;P2;durP2;ratioP2
36725;SDS011;44936;52.086;5.150;2023-01-25T00:02:14;19.60;;;6.00;;
36725;SDS011;44936;52.086;5.150;2023-01-25T00:04:40;19.65;;;6.80;;
36725;SDS011;44936;52.086;5.150;2023-01-25T00:07:06;19.02;;;5.63;;
36725;SDS011;44936;52.086;5.150;2023-01-25T00:09:31;20.48;;;5.53;;
36725;SDS011;44936;52.086;5.150;2023-01-25T00:11:57;20.45;;;5.70;;
36725;SDS011;44936;52.086;5.150;2023-01-25T00:14:22;20.88;;;6.22;;
36725;SDS011;44936;52.086;5.150;2023-01-25T00:16:48;15.73;;;5.45;;
36725;SDS011;44936;52.086;5.150;2023-01-25T00:19:13;19.65;;;5.65;;
36725;SDS011;44936;52.086;5.150;2023-01-25T00:21:39;20.35;;;5.55;;
36725;SDS011;44936;52.086;5.150;2023-01-25T00:24:05;16.35;;;5.50;;
36725;SDS011;44936;52.086;5.150;2023-01-25T00:26:31;18.75;;;5.45;;
36725;SDS011;44936;52.086;5.150;2023-01-25T00:28:58;22.02;;;6.35;;
36725;SDS011;44936;52.086;5.150;2023-01-25T00:34:06;23.27;;;7.07;;
36725;SDS011;44936;52.086;5.150;2023-01-25T00:36:50;18.08;;;5.25;;
36725;SDS011;44936;52.086;5.150;2023-01-25T00:39:20;21.13;;;5.53;;
36725;SDS011;44936;52.086;5.150;2023-01-25T00:41:46;19.10;;;6.60;;
36725;SDS011;44936;52.086;5.150;2023-01-25T00:44:12;19.02;;;5.85;;
36725;SDS011;44936;52.086;5.150;2023-01-25T00:46:37;16.63;;;5.20;;
36725;SDS011;44936;52.086;5.150;2023-01-25T00:49:06;18.52;;;5.38;;
36725;SDS011;44936;52.086;5.150;2023-01-25T00:51:43;15.40;;;5.20;;
36725;SDS011;44936;52.086;5.150;2023-01-25T00:54:08;19.45;;;5.70;;
36725;SDS011;44936;52.086;5.150;2023-01-25T00:56:33;19.80;;;5.60;;
36725;SDS011;44936;52.086;5.150;2023-01-25T00:58:59;19.50;;;5.28;;
36725;SDS011;44936;52.086;5.150;2023-01-25T01:01:24;20.92;;;5.93;;
36725;SDS011;44936;52.086;5.150;2023-01-25T01:03:50;23.65;;;6.22;;
36725;SDS011;44936;52.086;5.150;2023-01-25T01:06:16;16.90;;;4.65;;
36725;SDS011;44936;52.086;5.150;2023-01-25T01:08:41;19.60;;;5.95;;
36725;SDS011;44936;52.086;5.150;2023-01-25T01:11:08;21.20;;;5.40;;
36725;SDS011;44936;52.086;5.150;2023-01-25T01:13:35;18.50;;;5.72;;
36725;SDS011;44936;52.086;5.150;2023-01-25T01:16:01;16.15;;;5.05;;
36725;SDS011;44936;52.086;5.150;2023-01-25T01:18:35;21.88;;;5.70;;
36725;SDS011;44936;52.086;5.150;2023-01-25T01:21:03;20.75;;;5.97;;
36725;SDS011;44936;52.086;5.150;2023-01-25T01:23:32;17.27;;;4.97;;
36725;SDS011;44936;52.086;5.150;2023-01-25T01:25:58;18.27;;;5.53;;
36725;SDS011;44936;52.086;5.150;2023-01-25T01:28:24;17.08;;;6.13;;
36725;SDS011;44936;52.086;5.150;2023-01-25T01:30:51;17.80;;;5.50;;
36725;SDS011;44936;52.086;5.150;2023-01-25T01:33:17;22.70;;;6.43;;
36725;SDS011;44936;52.086;5.150;2023-01-25T01:35:42;17.63;;;5.35;;
36725;SDS011;44936;52.086;5.150;2023-01-25T01:38:10;19.45;;;5.50;;
36725;SDS011;44936;52.086;5.150;2023-01-25T01:40:37;18.23;;;5.60;;
36725;SDS011;44936;52.086;5.150;2023-01-25T01:43:15;19.33;;;5.85;;
36725;SDS011;44936;52.086;5.150;2023-01-25T01:45:55;20.20;;;6.18;;
36725;SDS011;44936;52.086;5.150;2023-01-25T01:53:55;19.17;;;5.43;;
36725;SDS011;44936;52.086;5.150;2023-01-25T01:56:28;18.58;;;5.53;;
36725;SDS011;44936;52.086;5.150;2023-01-25T01:58:59;31.80;;;5.93;;
36725;SDS011;44936;52.086;5.150;2023-01-25T02:01:25;21.27;;;5.93;;
36725;SDS011;44936;52.086;5.150;2023-01-25T02:03:51;18.80;;;6.45;;
36725;SDS011;44936;52.086;5.150;2023-01-25T02:06:24;17.30;;;5.20;;
36725;SDS011;44936;52.086;5.150;2023-01-25T02:08:52;21.13;;;6.05;;
36725;SDS011;44936;52.086;5.150;2023-01-25T02:11:19;18.48;;;5.72;;
36725;SDS011;44936;52.086;5.150;2023-01-25T02:13:45;21.65;;;5.95;;
36725;SDS011;44936;52.086;5.150;2023-01-25T02:16:15;20.02;;;6.05;;
36725;SDS011;44936;52.086;5.150;2023-01-25T02:18:46;21.67;;;5.68;;
36725;SDS011;44936;52.086;5.150;2023-01-25T02:21:11;24.73;;;6.38;;
36725;SDS011;44936;52.086;5.150;2023-01-25T02:23:43;21.48;;;6.20;;
36725;SDS011;44936;52.086;5.150;2023-01-25T02:26:15;22.33;;;6.53;;
36725;SDS011;44936;52.086;5.150;2023-01-25T02:28:44;20.58;;;5.82;;
36725;SDS011;44936;52.086;5.150;2023-01-25T02:31:23;27.42;;;7.45;;
36725;SDS011;44936;52.086;5.150;2023-01-25T02:33:51;19.67;;;5.68;;
36725;SDS011;44936;52.086;5.150;2023-01-25T02:39:04;21.10;;;6.55;;
36725;SDS011;44936;52.086;5.150;2023-01-25T02:41:37;21.58;;;6.22;;
36725;SDS011;44936;52.086;5.150;2023-01-25T02:44:08;22.48;;;6.88;;
36725;SDS011;44936;52.086;5.150;2023-01-25T02:46:42;20.92;;;5.75;;
36725;SDS011;44936;52.086;5.150;2023-01-25T02:49:12;22.58;;;5.25;;
36725;SDS011;44936;52.086;5.150;2023-01-25T02:51:40;21.85;;;5.95;;
36725;SDS011;44936;52.086;5.150;2023-01-25T02:54:07;24.98;;;6.45;;
36725;SDS011;44936;52.086;5.150;2023-01-25T02:56:35;23.17;;;5.80;;
36725;SDS011;44936;52.086;5.150;2023-01-25T02:59:00;24.70;;;6.78;;
36725;SDS011;44936;52.086;5.150;2023-01-25T03:01:30;22.33;;;6.97;;
36725;SDS011;44936;52.086;5.150;2023-01-25T03:03:59;21.20;;;5.75;;
36725;SDS011;44936;52.086;5.150;2023-01-25T03:06:26;21.65;;;5.47;;
36725;SDS011;44936;52.086;5.150;2023-01-25T03:08:52;20.33;;;6.15;;
36725;SDS011;44936;52.086;5.150;2023-01-25T03:11:17;24.98;;;6.65;;
36725;SDS011;44936;52.086;5.150;2023-01-25T03:13:42;20.88;;;6.05;;
36725;SDS011;44936;52.086;5.150;2023-01-25T03:16:09;22.95;;;6.13;;
36725;SDS011;44936;52.086;5.150;2023-01-25T03:18:36;21.42;;;5.53;;
36725;SDS011;44936;52.086;5.150;2023-01-25T03:21:03;20.63;;;5.38;;
36725;SDS011;44936;52.086;5.150;2023-01-25T03:23:30;23.13;;;6.00;;
36725;SDS011;44936;52.086;5.150;2023-01-25T03:26:03;24.52;;;6.40;;
36725;SDS011;44936;52.086;5.150;2023-01-25T03:28:32;23.38;;;6.55;;
36725;SDS011;44936;52.086;5.150;2023-01-25T03:30:57;20.45;;;6.43;;
36725;SDS011;44936;52.086;5.150;2023-01-25T03:33:23;25.48;;;6.57;;
36725;SDS011;44936;52.086;5.150;2023-01-25T03:35:54;22.85;;;6.80;;
36725;SDS011;44936;52.086;5.150;2023-01-25T03:38:20;29.08;;;5.68;;
36725;SDS011;44936;52.086;5.150;2023-01-25T03:40:49;20.63;;;5.20;;
36725;SDS011;44936;52.086;5.150;2023-01-25T03:43:15;20.25;;;5.60;;
36725;SDS011;44936;52.086;5.150;2023-01-25T03:45:41;22.88;;;5.93;;
36725;SDS011;44936;52.086;5.150;2023-01-25T03:48:06;21.55;;;5.95;;
36725;SDS011;44936;52.086;5.150;2023-01-25T03:50:32;20.77;;;5.88;;
36725;SDS011;44936;52.086;5.150;2023-01-25T03:52:57;23.00;;;6.18;;
36725;SDS011;44936;52.086;5.150;2023-01-25T03:55:27;22.08;;;5.65;;
36725;SDS011;44936;52.086;5.150;2023-01-25T03:57:54;23.50;;;6.40;;
36725;SDS011;44936;52.086;5.150;2023-01-25T04:00:19;26.25;;;6.63;;
36725;SDS011;44936;52.086;5.150;2023-01-25T04:02:45;21.33;;;6.22;;
36725;SDS011;44936;52.086;5.150;2023-01-25T04:05:11;21.77;;;5.68;;
36725;SDS011;44936;52.086;5.150;2023-01-25T04:07:37;19.73;;;5.28;;
36725;SDS011;44936;52.086;5.150;2023-01-25T04:10:03;24.75;;;5.80;;
36725;SDS011;44936;52.086;5.150;2023-01-25T04:12:29;21.50;;;5.63;;
36725;SDS011;44936;52.086;5.150;2023-01-25T04:14:58;22.08;;;6.07;;
36725;SDS011;44936;52.086;5.150;2023-01-25T04:17:24;22.52;;;6.15;;
36725;SDS011;44936;52.086;5.150;2023-01-25T04:19:49;18.50;;;5.45;;
36725;SDS011;44936;52.086;5.150;2023-01-25T04:22:14;24.80;;;6.82;;
36725;SDS011;44936;52.086;5.150;2023-01-25T04:24:40;24.77;;;6.20;;
36725;SDS011;44936;52.086;5.150;2023-01-25T04:27:06;24.13;;;6.22;;
36725;SDS011;44936;52.086;5.150;2023-01-25T04:29:32;28.42;;;6.35;;
36725;SDS011;44936;52.086;5.150;2023-01-25T04:31:58;23.67;;;6.35;;
36725;SDS011;44936;52.086;5.150;2023-01-25T04:34:23;24.25;;;6.47;;
36725;SDS011;44936;52.086;5.150;2023-01-25T04:36:49;23.30;;;6.38;;
36725;SDS011;44936;52.086;5.150;2023-01-25T04:39:14;23.25;;;5.97;;
36725;SDS011;44936;52.086;5.150;2023-01-25T04:41:40;30.27;;;9.13;;
36725;SDS011;44936;52.086;5.150;2023-01-25T04:44:08;23.23;;;6.28;;
36725;SDS011;44936;52.086;5.150;2023-01-25T04:46:34;25.08;;;6.43;;
36725;SDS011;44936;52.086;5.150;2023-01-25T04:48:59;27.73;;;6.75;;
36725;SDS011;44936;52.086;5.150;2023-01-25T04:51:24;30.33;;;7.53;;
36725;SDS011;44936;52.086;5.150;2023-01-25T04:53:50;21.65;;;6.82;;
36725;SDS011;44936;52.086;5.150;2023-01-25T04:56:15;26.63;;;6.53;;
36725;SDS011;44936;52.086;5.150;2023-01-25T04:58:40;23.45;;;7.03;;
36725;SDS011;44936;52.086;5.150;2023-01-25T05:01:06;24.10;;;6.22;;
36725;SDS011;44936;52.086;5.150;2023-01-25T05:03:31;25.63;;;7.05;;
36725;SDS011;44936;52.086;5.150;2023-01-25T05:05:57;27.45;;;7.13;;
36725;SDS011;44936;52.086;5.150;2023-01-25T05:08:22;25.30;;;6.40;;
36725;SDS011;44936;52.086;5.150;2023-01-25T05:10:49;19.80;;;6.30;;
36725;SDS011;44936;52.086;5.150;2023-01-25T05:13:15;21.05;;;5.85;;
36725;SDS011;44936;52.086;5.150;2023-01-25T05:15:40;24.67;;;6.72;;
36725;SDS011;44936;52.086;5.150;2023-01-25T05:18:06;30.27;;;8.07;;
36725;SDS011;44936;52.086;5.150;2023-01-25T05:20:31;24.33;;;6.53;;
36725;SDS011;44936;52.086;5.150;2023-01-25T05:22:56;23.63;;;7.35;;
36725;SDS011;44936;52.086;5.150;2023-01-25T05:25:22;25.10;;;5.97;;
36725;SDS011;44936;52.086;5.150;2023-01-25T05:28:06;26.27;;;7.22;;
36725;SDS011;44936;52.086;5.150;2023-01-25T05:30:32;20.67;;;5.80;;
36725;SDS011;44936;52.086;5.150;2023-01-25T05:32:57;25.83;;;6.97;;
36725;SDS011;44936;52.086;5.150;2023-01-25T05:35:23;23.70;;;6.22;;
36725;SDS011;44936;52.086;5.150;2023-01-25T05:37:49;20.05;;;6.07;;
36725;SDS011;44936;52.086;5.150;2023-01-25T05:40:14;25.77;;;6.60;;
36725;SDS011;44936;52.086;5.150;2023-01-25T05:42:40;28.08;;;7.05;;
36725;SDS011;44936;52.086;5.150;2023-01-25T05:45:06;25.13;;;6.55;;
36725;SDS011;44936;52.086;5.150;2023-01-25T05:47:32;30.55;;;8.10;;
36725;SDS011;44936;52.086;5.150;2023-01-25T05:49:58;33.42;;;7.90;;
36725;SDS011;44936;52.086;5.150;2023-01-25T05:52:23;20.02;;;5.63;;
36725;SDS011;44936;52.086;5.150;2023-01-25T05:54:48;27.42;;;8.13;;
36725;SDS011;44936;52.086;5.150;2023-01-25T05:57:14;25.38;;;6.88;;
36725;SDS011;44936;52.086;5.150;2023-01-25T05:59:40;24.25;;;7.15;;
36725;SDS011;44936;52.086;5.150;2023-01-25T06:02:05;28.65;;;7.13;;
36725;SDS011;44936;52.086;5.150;2023-01-25T06:04:31;29.38;;;7.25;;
36725;SDS011;44936;52.086;5.150;2023-01-25T06:06:56;26.30;;;6.72;;
36725;SDS011;44936;52.086;5.150;2023-01-25T06:09:21;31.80;;;6.97;;
36725;SDS011;44936;52.086;5.150;2023-01-25T06:11:47;24.33;;;7.15;;
36725;SDS011;44936;52.086;5.150;2023-01-25T06:14:13;28.60;;;7.15;;
36725;SDS011;44936;52.086;5.150;2023-01-25T06:16:39;27.30;;;6.55;;
36725;SDS011;44936;52.086;5.150;2023-01-25T06:19:05;29.45;;;8.32;;
36725;SDS011;44936;52.086;5.150;2023-01-25T06:21:31;28.08;;;7.32;;
36725;SDS011;44936;52.086;5.150;2023-01-25T06:23:57;25.75;;;6.85;;
36725;SDS011;44936;52.086;5.150;2023-01-25T06:26:23;25.77;;;6.43;;
36725;SDS011;44936;52.086;5.150;2023-01-25T06:28:49;27.35;;;7.32;;
36725;SDS011;44936;52.086;5.150;2023-01-25T06:31:15;28.90;;;6.65;;
36725;SDS011;44936;52.086;5.150;2023-01-25T06:33:41;29.52;;;7.55;;
36725;SDS011;44936;52.086;5.150;2023-01-25T06:36:12;27.10;;;5.97;;
36725;SDS011;44936;52.086;5.150;2023-01-25T06:38:39;28.88;;;6.95;;
36725;SDS011;44936;52.086;5.150;2023-01-25T06:41:06;28.98;;;6.93;;
36725;SDS011;44936;52.086;5.150;2023-01-25T06:43:33;27.48;;;7.43;;
36725;SDS011;44936;52.086;5.150;2023-01-25T06:46:04;29.48;;;6.97;;
36725;SDS011;44936;52.086;5.150;2023-01-25T06:48:31;35.33;;;8.40;;
36725;SDS011;44936;52.086;5.150;2023-01-25T06:51:01;26.92;;;8.15;;
36725;SDS011;44936;52.086;5.150;2023-01-25T06:53:29;28.42;;;7.05;;
36725;SDS011;44936;52.086;5.150;2023-01-25T06:55:59;26.77;;;6.50;;
36725;SDS011;44936;52.086;5.150;2023-01-25T06:58:27;33.75;;;7.30;;
36725;SDS011;44936;52.086;5.150;2023-01-25T07:00:53;24.08;;;6.00;;
36725;SDS011;44936;52.086;5.150;2023-01-25T07:03:23;29.25;;;8.02;;
36725;SDS011;44936;52.086;5.150;2023-01-25T07:05:48;27.98;;;6.95;;
36725;SDS011;44936;52.086;5.150;2023-01-25T07:08:15;30.48;;;7.65;;
36725;SDS011;44936;52.086;5.150;2023-01-25T07:10:41;28.77;;;8.70;;
36725;SDS011;44936;52.086;5.150;2023-01-25T07:13:06;27.40;;;7.95;;
36725;SDS011;44936;52.086;5.150;2023-01-25T07:15:32;30.00;;;7.68;;
36725;SDS011;44936;52.086;5.150;2023-01-25T07:17:57;31.70;;;8.27;;
36725;SDS011;44936;52.086;5.150;2023-01-25T07:20:23;27.55;;;6.57;;
36725;SDS011;44936;52.086;5.150;2023-01-25T07:22:48;29.85;;;8.05;;
36725;SDS011;44936;52.086;5.150;2023-01-25T07:25:13;27.58;;;7.75;;
36725;SDS011;44936;52.086;5.150;2023-01-25T07:27:39;25.95;;;7.15;;
36725;SDS011;44936;52.086;5.150;2023-01-25T07:30:04;30.70;;;7.45;;
36725;SDS011;44936;52.086;5.150;2023-01-25T07:32:30;32.00;;;7.57;;
36725;SDS011;44936;52.086;5.150;2023-01-25T07:34:56;26.08;;;7.28;;
36725;SDS011;44936;52.086;5.150;2023-01-25T07:37:21;30.55;;;6.90;;
36725;SDS011;44936;52.086;5.150;2023-01-25T07:39:46;28.80;;;7.38;;
36725;SDS011;44936;52.086;5.150;2023-01-25T07:42:14;28.33;;;6.35;;
36725;SDS011;44936;52.086;5.150;2023-01-25T07:44:40;31.40;;;7.93;;
36725;SDS011;44936;52.086;5.150;2023-01-25T07:47:05;33.25;;;7.78;;
36725;SDS011;44936;52.086;5.150;2023-01-25T07:49:31;34.45;;;7.53;;
36725;SDS011;44936;52.086;5.150;2023-01-25T07:51:56;34.45;;;7.75;;
36725;SDS011;44936;52.086;5.150;2023-01-25T07:54:22;29.75;;;8.55;;
36725;SDS011;44936;52.086;5.150;2023-01-25T07:56:47;31.75;;;7.90;;
36725;SDS011;44936;52.086;5.150;2023-01-25T07:59:13;31.63;;;7.03;;
36725;SDS011;44936;52.086;5.150;2023-01-25T08:01:39;35.25;;;7.72;;
36725;SDS011;44936;52.086;5.150;2023-01-25T08:04:05;27.70;;;6.55;;
36725;SDS011;44936;52.086;5.150;2023-01-25T08:06:31;34.15;;;8.52;;
36725;SDS011;44936;52.086;5.150;2023-01-25T08:09:00;37.70;;;7.97;;
36725;SDS011;44936;52.086;5.150;2023-01-25T08:11:32;31.53;;;7.83;;
36725;SDS011;44936;52.086;5.150;2023-01-25T08:13:59;33.67;;;8.88;;
36725;SDS011;44936;52.086;5.150;2023-01-25T08:16:26;34.47;;;8.82;;
36725;SDS011;44936;52.086;5.150;2023-01-25T08:18:53;30.30;;;6.68;;
36725;SDS011;44936;52.086;5.150;2023-01-25T08:21:21;38.30;;;8.13;;
36725;SDS011;44936;52.086;5.150;2023-01-25T08:23:49;34.05;;;8.02;;
36725;SDS011;44936;52.086;5.150;2023-01-25T08:26:15;32.63;;;7.15;;
36725;SDS011;44936;52.086;5.150;2023-01-25T08:28:43;31.48;;;7.45;;
36725;SDS011;44936;52.086;5.150;2023-01-25T08:31:10;31.73;;;7.85;;
36725;SDS011;44936;52.086;5.150;2023-01-25T08:33:42;31.95;;;7.47;;
36725;SDS011;44936;52.086;5.150;2023-01-25T08:36:10;29.75;;;7.80;;
36725;SDS011;44936;52.086;5.150;2023-01-25T08:38:35;34.20;;;7.80;;
36725;SDS011;44936;52.086;5.150;2023-01-25T08:41:05;31.45;;;7.47;;
36725;SDS011;44936;52.086;5.150;2023-01-25T08:43:35;34.15;;;8.07;;
36725;SDS011;44936;52.086;5.150;2023-01-25T08:46:01;30.83;;;7.47;;
36725;SDS011;44936;52.086;5.150;2023-01-25T08:48:30;33.40;;;7.60;;
36725;SDS011;44936;52.086;5.150;2023-01-25T08:50:56;26.23;;;6.45;;
36725;SDS011;44936;52.086;5.150;2023-01-25T08:53:22;30.63;;;8.10;;
36725;SDS011;44936;52.086;5.150;2023-01-25T08:55:48;32.70;;;7.05;;
36725;SDS011;44936;52.086;5.150;2023-01-25T08:58:14;34.53;;;7.70;;
36725;SDS011;44936;52.086;5.150;2023-01-25T09:00:43;28.77;;;7.93;;
36725;SDS011;44936;52.086;5.150;2023-01-25T09:03:09;28.90;;;6.93;;
36725;SDS011;44936;52.086;5.150;2023-01-25T09:05:39;26.65;;;6.47;;
36725;SDS011;44936;52.086;5.150;2023-01-25T09:08:06;31.05;;;7.97;;
36725;SDS011;44936;52.086;5.150;2023-01-25T09:10:32;28.52;;;7.38;;
36725;SDS011;44936;52.086;5.150;2023-01-25T09:13:01;33.45;;;7.25;;
36725;SDS011;44936;52.086;5.150;2023-01-25T09:15:28;33.22;;;7.30;;
36725;SDS011;44936;52.086;5.150;2023-01-25T09:17:55;30.33;;;7.10;;
36725;SDS011;44936;52.086;5.150;2023-01-25T09:20:21;29.63;;;7.85;;
36725;SDS011;44936;52.086;5.150;2023-01-25T09:22:47;31.75;;;7.75;;
36725;SDS011;44936;52.086;5.150;2023-01-25T09:25:14;33.45;;;7.13;;
36725;SDS011;44936;52.086;5.150;2023-01-25T09:27:40;31.60;;;8.13;;
36725;SDS011;44936;52.086;5.150;2023-01-25T09:30:06;31.17;;;7.93;;
36725;SDS011;44936;52.086;5.150;2023-01-25T09:32:32;27.83;;;6.53;;
36725;SDS011;44936;52.086;5.150;2023-01-25T09:34:58;27.08;;;6.90;;
36725;SDS011;44936;52.086;5.150;2023-01-25T09:37:23;33.08;;;8.68;;
36725;SDS011;44936;52.086;5.150;2023-01-25T09:39:49;30.73;;;7.15;;
36725;SDS011;44936;52.086;5.150;2023-01-25T09:51:44;33.55;;;7.88;;
36725;SDS011;44936;52.086;5.150;2023-01-25T09:53:50;26.42;;;5.68;;
36725;SDS011;44936;52.086;5.150;2023-01-25T09:56:24;28.20;;;6.97;;
36725;SDS011;44936;52.086;5.150;2023-01-25T09:58:56;28.10;;;6.82;;
36725;SDS011;44936;52.086;5.150;2023-01-25T10:01:26;32.38;;;7.57;;
36725;SDS011;44936;52.086;5.150;2023-01-25T10:03:59;31.92;;;7.55;;
36725;SDS011;44936;52.086;5.150;2023-01-25T10:06:35;30.10;;;7.15;;
36725;SDS011;44936;52.086;5.150;2023-01-25T10:11:54;32.67;;;8.55;;
36725;SDS011;44936;52.086;5.150;2023-01-25T10:14:23;26.08;;;5.90;;
36725;SDS011;44936;52.086;5.150;2023-01-25T10:16:57;27.00;;;6.00;;
36725;SDS011;44936;52.086;5.150;2023-01-25T10:19:52;31.40;;;7.50;;
36725;SDS011;44936;52.086;5.150;2023-01-25T10:22:32;32.80;;;6.82;;
36725;SDS011;44936;52.086;5.150;2023-01-25T10:25:22;27.88;;;6.13;;
36725;SDS011;44936;52.086;5.150;2023-01-25T10:31:02;29.00;;;6.65;;
36725;SDS011;44936;52.086;5.150;2023-01-25T10:33:31;31.52;;;7.00;;
36725;SDS011;44936;52.086;5.150;2023-01-25T10:36:00;27.83;;;6.60;;
36725;SDS011;44936;52.086;5.150;2023-01-25T10:38:29;26.90;;;5.50;;
36725;SDS011;44936;52.086;5.150;2023-01-25T10:40:57;29.45;;;7.70;;
36725;SDS011;44936;52.086;5.150;2023-01-25T10:43:28;31.77;;;8.00;;
36725;SDS011;44936;52.086;5.150;2023-01-25T10:45:54;22.00;;;5.93;;
36725;SDS011;44936;52.086;5.150;2023-01-25T10:48:20;29.50;;;6.72;;
36725;SDS011;44936;52.086;5.150;2023-01-25T10:50:49;28.17;;;7.10;;
36725;SDS011;44936;52.086;5.150;2023-01-25T10:53:27;25.85;;;5.75;;
36725;SDS011;44936;52.086;5.150;2023-01-25T10:58:29;23.83;;;6.10;;
36725;SDS011;44936;52.086;5.150;2023-01-25T11:00:56;35.53;;;6.78;;
36725;SDS011;44936;52.086;5.150;2023-01-25T11:03:22;28.35;;;7.25;;
36725;SDS011;44936;52.086;5.150;2023-01-25T11:05:56;23.77;;;5.18;;
36725;SDS011;44936;52.086;5.150;2023-01-25T11:08:24;26.25;;;5.30;;
36725;SDS011;44936;52.086;5.150;2023-01-25T11:10:55;20.55;;;5.70;;
36725;SDS011;44936;52.086;5.150;2023-01-25T11:13:23;26.17;;;6.45;;
36725;SDS011;44936;52.086;5.150;2023-01-25T11:15:51;25.90;;;6.60;;
36725;SDS011;44936;52.086;5.150;2023-01-25T11:20:44;29.08;;;7.75;;
36725;SDS011;44936;52.086;5.150;2023-01-25T11:23:24;33.25;;;7.00;;
36725;SDS011;44936;52.086;5.150;2023-01-25T11:25:51;28.02;;;7.53;;
36725;SDS011;44936;52.086;5.150;2023-01-25T11:30:44;31.40;;;6.80;;
36725;SDS011;44936;52.086;5.150;2023-01-25T11:33:14;30.40;;;6.60;;
36725;SDS011;44936;52.086;5.150;2023-01-25T11:38:31;26.55;;;5.60;;
36725;SDS011;44936;52.086;5.150;2023-01-25T11:49:08;26.48;;;6.22;;
36725;SDS011;44936;52.086;5.150;2023-01-25T11:51:52;26.58;;;5.85;;
36725;SDS011;44936;52.086;5.150;2023-01-25T11:57:30;31.95;;;6.97;;
36725;SDS011;44936;52.086;5.150;2023-01-25T12:03:40;28.75;;;6.20;;
36725;SDS011;44936;52.086;5.150;2023-01-25T12:05:59;31.13;;;7.03;;
36725;SDS011;44936;52.086;5.150;2023-01-25T12:09:06;27.38;;;6.55;;
36725;SDS011;44936;52.086;5.150;2023-01-25T12:17:25;34.03;;;7.03;;
36725;SDS011;44936;52.086;5.150;2023-01-25T12:23:01;29.10;;;6.32;;
36725;SDS011;44936;52.086;5.150;2023-01-25T12:28:37;34.55;;;7.57;;
36725;SDS011;44936;52.086;5.150;2023-01-25T12:31:11;30.73;;;7.07;;
36725;SDS011;44936;52.086;5.150;2023-01-25T12:36:27;31.15;;;7.55;;
36725;SDS011;44936;52.086;5.150;2023-01-25T12:39:00;32.53;;;6.05;;
36725;SDS011;44936;52.086;5.150;2023-01-25T12:42:36;32.38;;;7.38;;
36725;SDS011;44936;52.086;5.150;2023-01-25T12:44:43;29.88;;;6.22;;
36725;SDS011;44936;52.086;5.150;2023-01-25T12:47:20;27.20;;;6.03;;
36725;SDS011;44936;52.086;5.150;2023-01-25T12:52:23;33.60;;;7.15;;
36725;SDS011;44936;52.086;5.150;2023-01-25T12:54:50;35.97;;;6.97;;
36725;SDS011;44936;52.086;5.150;2023-01-25T13:05:35;27.50;;;6.82;;
36725;SDS011;44936;52.086;5.150;2023-01-25T13:11:07;30.27;;;7.72;;
36725;SDS011;44936;52.086;5.150;2023-01-25T13:13:36;37.47;;;7.40;;
36725;SDS011;44936;52.086;5.150;2023-01-25T13:19:02;31.95;;;6.65;;
36725;SDS011;44936;52.086;5.150;2023-01-25T13:21:44;34.05;;;7.50;;
36725;SDS011;44936;52.086;5.150;2023-01-25T13:24:15;31.02;;;6.47;;
36725;SDS011;44936;52.086;5.150;2023-01-25T13:32:14;33.72;;;7.57;;
36725;SDS011;44936;52.086;5.150;2023-01-25T13:37:15;27.42;;;6.35;;
36725;SDS011;44936;52.086;5.150;2023-01-25T13:42:17;33.80;;;7.07;;
36725;SDS011;44936;52.086;5.150;2023-01-25T13:44:57;29.85;;;7.65;;
36725;SDS011;44936;52.086;5.150;2023-01-25T13:47:32;27.73;;;6.97;;
36725;SDS011;44936;52.086;5.150;2023-01-25T13:50:17;29.38;;;7.30;;
36725;SDS011;44936;52.086;5.150;2023-01-25T13:55:28;34.45;;;7.90;;
36725;SDS011;44936;52.086;5.150;2023-01-25T13:58:33;26.38;;;6.55;;
36725;SDS011;44936;52.086;5.150;2023-01-25T14:00:59;37.08;;;7.05;;
36725;SDS011;44936;52.086;5.150;2023-01-25T14:06:27;32.17;;;7.18;;
36725;SDS011;44936;52.086;5.150;2023-01-25T14:08:57;38.20;;;9.10;;
36725;SDS011;44936;52.086;5.150;2023-01-25T14:11:53;33.88;;;7.20;;
36725;SDS011;44936;52.086;5.150;2023-01-25T14:14:24;39.25;;;7.47;;
36725;SDS011;44936;52.086;5.150;2023-01-25T14:19:34;27.20;;;5.82;;
36725;SDS011;44936;52.086;5.150;2023-01-25T14:22:20;32.03;;;7.05;;
36725;SDS011;44936;52.086;5.150;2023-01-25T14:27:40;30.83;;;6.43;;
36725;SDS011;44936;52.086;5.150;2023-01-25T14:30:11;30.60;;;7.05;;
36725;SDS011;44936;52.086;5.150;2023-01-25T14:32:48;29.70;;;6.90;;
36725;SDS011;44936;52.086;5.150;2023-01-25T14:38:17;28.73;;;7.03;;
36725;SDS011;44936;52.086;5.150;2023-01-25T14:43:39;36.72;;;7.90;;
36725;SDS011;44936;52.086;5.150;2023-01-25T14:52:02;36.83;;;7.53;;
36725;SDS011;44936;52.086;5.150;2023-01-25T14:54:32;28.45;;;7.07;;
36725;SDS011;44936;52.086;5.150;2023-01-25T14:57:06;34.78;;;7.35;;
36725;SDS011;44936;52.086;5.150;2023-01-25T14:59:49;29.70;;;6.60;;
36725;SDS011;44936;52.086;5.150;2023-01-25T15:02:24;32.22;;;7.10;;
36725;SDS011;44936;52.086;5.150;2023-01-25T15:04:59;37.03;;;7.93;;
36725;SDS011;44936;52.086;5.150;2023-01-25T15:07:44;37.63;;;7.90;;
36725;SDS011;44936;52.086;5.150;2023-01-25T15:12:39;39.05;;;8.27;;
36725;SDS011;44936;52.086;5.150;2023-01-25T15:15:18;34.80;;;7.55;;
36725;SDS011;44936;52.086;5.150;2023-01-25T15:17:46;29.92;;;6.57;;
36725;SDS011;44936;52.086;5.150;2023-01-25T15:20:27;38.38;;;8.10;;
36725;SDS011;44936;52.086;5.150;2023-01-25T15:28:42;35.25;;;8.30;;
36725;SDS011;44936;52.086;5.150;2023-01-25T15:31:30;40.20;;;7.80;;
36725;SDS011;44936;52.086;5.150;2023-01-25T15:33:55;35.13;;;8.02;;
36725;SDS011;44936;52.086;5.150;2023-01-25T15:36:25;30.27;;;7.70;;
36725;SDS011;44936;52.086;5.150;2023-01-25T15:38:52;25.33;;;6.75;;
36725;SDS011;44936;52.086;5.150;2023-01-25T15:41:17;35.30;;;7.43;;
36725;SDS011;44936;52.086;5.150;2023-01-25T15:43:43;31.80;;;7.22;;
36725;SDS011;44936;52.086;5.150;2023-01-25T15:46:11;38.05;;;8.20;;
36725;SDS011;44936;52.086;5.150;2023-01-25T15:48:41;30.60;;;7.68;;
36725;SDS011;44936;52.086;5.150;2023-01-25T15:51:08;31.70;;;7.05;;
36725;SDS011;44936;52.086;5.150;2023-01-25T15:53:34;32.90;;;8.45;;
36725;SDS011;44936;52.086;5.150;2023-01-25T15:56:04;30.10;;;6.35;;
36725;SDS011;44936;52.086;5.150;2023-01-25T15:58:43;32.72;;;7.45;;
36725;SDS011;44936;52.086;5.150;2023-01-25T16:01:15;32.60;;;7.13;;
36725;SDS011;44936;52.086;5.150;2023-01-25T16:03:41;32.65;;;7.90;;
36725;SDS011;44936;52.086;5.150;2023-01-25T16:08:56;31.63;;;6.95;;
36725;SDS011;44936;52.086;5.150;2023-01-25T16:11:23;39.83;;;8.23;;
36725;SDS011;44936;52.086;5.150;2023-01-25T16:13:49;34.30;;;7.68;;
36725;SDS011;44936;52.086;5.150;2023-01-25T16:16:20;38.03;;;8.20;;
36725;SDS011;44936;52.086;5.150;2023-01-25T16:18:47;29.52;;;7.05;;
36725;SDS011;44936;52.086;5.150;2023-01-25T16:21:13;37.40;;;8.18;;
36725;SDS011;44936;52.086;5.150;2023-01-25T16:23:45;35.65;;;7.70;;
36725;SDS011;44936;52.086;5.150;2023-01-25T16:26:21;38.65;;;8.23;;
36725;SDS011;44936;52.086;5.150;2023-01-25T16:28:49;38.92;;;8.52;;
36725;SDS011;44936;52.086;5.150;2023-01-25T16:31:14;34.63;;;9.38;;
36725;SDS011;44936;52.086;5.150;2023-01-25T16:33:40;41.95;;;8.85;;
36725;SDS011;44936;52.086;5.150;2023-01-25T16:36:17;31.75;;;7.70;;
36725;SDS011;44936;52.086;5.150;2023-01-25T16:38:44;35.85;;;8.02;;
36725;SDS011;44936;52.086;5.150;2023-01-25T16:41:09;29.55;;;7.40;;
36725;SDS011;44936;52.086;5.150;2023-01-25T16:43:39;46.95;;;8.20;;
36725;SDS011;44936;52.086;5.150;2023-01-25T16:46:13;30.30;;;7.13;;
36725;SDS011;44936;52.086;5.150;2023-01-25T16:48:40;29.10;;;6.78;;
36725;SDS011;44936;52.086;5.150;2023-01-25T16:51:09;40.28;;;7.85;;